createdAt,value
2018-02-03T00:00:51.810Z,87.21
2018-02-03T00:01:51.550Z,87.68
2018-02-03T00:02:51.542Z,87.59
2018-02-03T00:03:51.535Z,87.49
2018-02-03T00:04:51.779Z,87.68
2018-02-03T00:05:51.520Z,88.06
2018-02-03T00:06:51.767Z,88.25
2018-02-03T00:07:51.755Z,87.68
2018-02-03T00:08:51.747Z,87.68
2018-02-03T00:09:51.743Z,88.35
2018-02-03T00:10:51.732Z,88.25
2018-02-03T00:11:51.479Z,88.35
2018-02-03T00:12:51.460Z,88.54
2018-02-03T00:13:51.460Z,88.44
2018-02-03T00:14:51.693Z,88.54
2018-02-03T00:15:51.684Z,88.63
2018-02-03T00:16:51.431Z,89.39
2018-02-03T00:17:51.669Z,89.58
2018-02-03T00:18:51.661Z,89.58
2018-02-03T00:19:51.650Z,89.29
2018-02-03T00:20:51.396Z,89.39
2018-02-03T00:21:51.639Z,88.92
2018-02-03T00:22:51.375Z,88.44
2018-02-03T00:23:51.621Z,88.54
2018-02-03T00:24:51.609Z,87.97
2018-02-03T00:25:51.600Z,88.44
2018-02-03T00:26:51.384Z,87.59
2018-02-03T00:27:51.339Z,88.16
2018-02-03T00:28:51.580Z,87.77
2018-02-03T00:29:51.317Z,87.97
2018-02-03T00:30:51.306Z,88.82
2018-02-03T00:31:51.550Z,88.44
2018-02-03T00:32:51.293Z,88.44
2018-02-03T00:33:51.539Z,88.06
2018-02-03T00:34:51.275Z,88.06
2018-02-03T00:35:51.522Z,87.87
2018-02-03T00:36:51.553Z,87.77
2018-02-03T00:37:51.249Z,88.25
2018-02-03T00:38:51.492Z,88.16
2018-02-03T00:39:51.230Z,88.25
2018-02-03T00:40:51.475Z,88.44
2018-02-03T00:41:51.469Z,88.16
2018-02-03T00:42:51.460Z,88.16
2018-02-03T00:43:51.457Z,88.25
2018-02-03T00:44:51.446Z,88.63
2018-02-03T00:45:51.180Z,88.25
2018-02-03T00:46:51.183Z,88.16
2018-02-03T00:47:51.178Z,87.21
2018-02-03T00:48:51.180Z,86.93
2018-02-03T00:49:51.179Z,87.4
2018-02-03T00:50:51.154Z,87.3
2018-02-03T00:51:51.382Z,88.16
2018-02-03T00:52:51.374Z,88.44
2018-02-03T00:53:51.370Z,88.25
2018-02-03T00:54:51.359Z,88.06
2018-02-03T00:55:51.354Z,87.97
2018-02-03T00:56:51.097Z,87.97
2018-02-03T00:57:51.097Z,87.59
2018-02-03T00:58:51.323Z,87.59
2018-02-03T00:59:51.073Z,87.54
2018-02-03T01:00:51.305Z,88.35
2018-02-03T01:01:51.296Z,88.35
2018-02-03T01:02:51.296Z,88.3
2018-02-03T01:03:51.283Z,87.73
2018-02-03T01:04:51.020Z,88.3
2018-02-03T01:05:51.264Z,88.21
2018-02-03T01:06:51.256Z,88.63
2018-02-03T01:07:51.252Z,89.15
2018-02-03T01:08:51.246Z,88.96
2018-02-03T01:09:51.237Z,88.82
2018-02-03T01:10:50.967Z,88.4
2018-02-03T01:11:50.960Z,88.92
2018-02-03T01:12:51.205Z,89.01
2018-02-03T01:13:51.206Z,88.92
2018-02-03T01:14:51.186Z,89.29
2018-02-03T01:15:51.185Z,89.48
2018-02-03T01:16:50.923Z,89.29
2018-02-03T01:17:51.184Z,88.44
2018-02-03T01:18:51.156Z,88.63
2018-02-03T01:19:50.899Z,89.01
2018-02-03T01:20:51.150Z,88.44
2018-02-03T01:21:51.140Z,88.44
2018-02-03T01:22:51.139Z,88.16
2018-02-03T01:23:50.858Z,87.77
2018-02-03T01:24:51.110Z,87.59
2018-02-03T01:25:51.117Z,87.77
2018-02-03T01:26:51.085Z,87.21
2018-02-03T01:27:51.078Z,87.4
2018-02-03T01:28:50.815Z,87.4
2018-02-03T01:29:50.822Z,88.16
2018-02-03T01:30:51.054Z,88.25
2018-02-03T01:31:51.049Z,88.25
2018-02-03T01:32:51.032Z,88.49
2018-02-03T01:33:51.025Z,88.87
2018-02-03T01:34:51.018Z,89.72
2018-02-03T01:35:50.763Z,89.82
2018-02-03T01:36:50.761Z,90.1
2018-02-03T01:37:50.737Z,90.48
2018-02-03T01:38:50.979Z,90.86
2018-02-03T01:39:50.720Z,91.43
2018-02-03T01:40:50.965Z,92.66
2018-02-03T01:41:50.959Z,92.19
2018-02-03T01:42:50.957Z,91.9
2018-02-03T01:43:50.944Z,92.66
2018-02-03T01:44:50.931Z,92.85
2018-02-03T01:45:50.922Z,92.76
2018-02-03T01:46:50.909Z,93.32
2018-02-03T01:47:50.913Z,93.04
2018-02-03T01:48:50.643Z,92.85
2018-02-03T01:49:50.888Z,93.51
2018-02-03T01:50:50.878Z,93.32
2018-02-03T01:51:50.874Z,92.52
2018-02-03T01:52:50.610Z,91.71
2018-02-03T01:53:50.602Z,90.81
2018-02-03T01:54:50.844Z,90.91
2018-02-03T01:55:50.840Z,91.05
2018-02-03T01:56:50.582Z,91.52
2018-02-03T01:57:50.563Z,92
2018-02-03T01:58:50.810Z,91.62
2018-02-03T01:59:50.799Z,91.62
2018-02-03T02:00:50.790Z,91.62
2018-02-03T02:01:50.783Z,92.19
2018-02-03T02:02:50.773Z,92.66
2018-02-03T02:03:50.773Z,92.09
2018-02-03T02:04:50.762Z,93.13
2018-02-03T02:05:50.507Z,92.94
2018-02-03T02:06:50.496Z,93.23
2018-02-03T02:07:50.512Z,93.89
2018-02-03T02:08:50.716Z,93.61
2018-02-03T02:09:50.455Z,93.99
2018-02-03T02:10:50.452Z,94.27
2018-02-03T02:11:50.760Z,94.56
2018-02-03T02:12:50.678Z,94.65
2018-02-03T02:13:50.739Z,94.93
2018-02-03T02:14:50.668Z,95.41
2018-02-03T02:15:50.652Z,95.03
2018-02-03T02:16:50.402Z,95.55
2018-02-03T02:17:50.639Z,95.36
2018-02-03T02:18:50.373Z,95.26
2018-02-03T02:19:50.622Z,95.36
2018-02-03T02:20:50.357Z,95.55
2018-02-03T02:21:50.368Z,95.64
2018-02-03T02:22:50.335Z,95.45
2018-02-03T02:23:50.584Z,95.55
2018-02-03T02:24:50.570Z,95.45
2018-02-03T02:25:50.307Z,95.74
2018-02-03T02:26:50.564Z,95.93
2018-02-03T02:27:50.537Z,96.12
2018-02-03T02:28:50.530Z,95.93
2018-02-03T02:29:50.280Z,95.93
2018-02-03T02:30:50.519Z,95.93
2018-02-03T02:31:50.510Z,96.12
2018-02-03T02:32:50.499Z,96.26
2018-02-03T02:33:50.486Z,96.88
2018-02-03T02:34:50.470Z,95.97
2018-02-03T02:35:50.223Z,96.83
2018-02-03T02:36:50.212Z,96.88
2018-02-03T02:37:50.441Z,96.64
2018-02-03T02:38:50.186Z,96.78
2018-02-03T02:39:50.430Z,97.02
2018-02-03T02:40:50.430Z,97.49
2018-02-03T02:41:50.470Z,97.58
2018-02-03T02:42:50.413Z,98.15
2018-02-03T02:43:50.397Z,97.87
2018-02-03T02:44:50.378Z,97.25
2018-02-03T02:45:50.116Z,97.35
2018-02-03T02:46:50.368Z,96.88
2018-02-03T02:47:50.352Z,97.16
2018-02-03T02:48:50.085Z,97.54
2018-02-03T02:49:50.333Z,97.44
2018-02-03T02:50:50.069Z,97.35
2018-02-03T02:51:50.319Z,97.16
2018-02-03T02:52:50.296Z,97.73
2018-02-03T02:53:50.039Z,97.16
2018-02-03T02:54:50.278Z,96.78
2018-02-03T02:55:50.273Z,95.93
2018-02-03T02:56:50.259Z,96.12
2018-02-03T02:57:49.997Z,96.31
2018-02-03T02:58:49.991Z,96.88
2018-02-03T02:59:51.079Z,97.06
2018-02-03T03:00:49.968Z,96.4
2018-02-03T03:01:49.971Z,96.02
2018-02-03T03:02:49.957Z,95.74
2018-02-03T03:03:49.939Z,95.83
2018-02-03T03:04:49.931Z,96.02
2018-02-03T03:05:50.190Z,95.93
2018-02-03T03:06:50.184Z,95.83
2018-02-03T03:07:50.157Z,95.74
2018-02-03T03:08:50.145Z,96.12
2018-02-03T03:09:50.139Z,96.31
2018-02-03T03:10:50.132Z,96.5
2018-02-03T03:11:49.887Z,96.4
2018-02-03T03:12:49.855Z,95.83
2018-02-03T03:13:49.847Z,95.64
2018-02-03T03:14:50.091Z,95.55
2018-02-03T03:15:49.826Z,95.64
2018-02-03T03:16:50.079Z,95.64
2018-02-03T03:17:50.066Z,94.98
2018-02-03T03:18:50.056Z,94.7
2018-02-03T03:19:50.040Z,94.04
2018-02-03T03:20:49.780Z,93.8
2018-02-03T03:21:50.025Z,93.56
2018-02-03T03:22:50.017Z,94.32
2018-02-03T03:23:49.751Z,94.51
2018-02-03T03:24:49.997Z,94.04
2018-02-03T03:25:49.982Z,94.23
2018-02-03T03:26:50.001Z,94.6
2018-02-03T03:27:49.968Z,93.56
2018-02-03T03:28:49.964Z,93.75
2018-02-03T03:29:52.296Z,93.46
2018-02-03T03:30:49.938Z,94.04
2018-02-03T03:31:49.678Z,94.04
2018-02-03T03:32:49.679Z,93.94
2018-02-03T03:33:49.661Z,93.65
2018-02-03T03:34:49.650Z,94.13
2018-02-03T03:35:49.895Z,94.13
2018-02-03T03:36:49.889Z,93.94
2018-02-03T03:37:49.620Z,93.94
2018-02-03T03:38:49.865Z,93.94
2018-02-03T03:39:49.604Z,93.94
2018-02-03T03:40:49.847Z,94.13
2018-02-03T03:41:49.585Z,94.51
2018-02-03T03:42:49.579Z,94.42
2018-02-03T03:43:49.567Z,94.51
2018-02-03T03:44:49.811Z,94.27
2018-02-03T03:45:49.809Z,94.32
2018-02-03T03:46:49.815Z,94.42
2018-02-03T03:47:49.786Z,94.37
2018-02-03T03:48:49.772Z,94.65
2018-02-03T03:49:49.769Z,94.51
2018-02-03T03:50:49.756Z,94.51
2018-02-03T03:51:49.763Z,94.74
2018-02-03T03:52:49.750Z,94.65
2018-02-03T03:53:49.728Z,94.08
2018-02-03T03:54:49.715Z,94.51
2018-02-03T03:55:49.710Z,94.56
2018-02-03T03:56:49.447Z,94.6
2018-02-03T03:57:49.691Z,94.65
2018-02-03T03:58:49.694Z,94.74
2018-02-03T03:59:49.677Z,94.7
2018-02-03T04:00:49.664Z,94.93
2018-02-03T04:01:49.667Z,94.65
2018-02-03T04:02:49.393Z,95.12
2018-02-03T04:03:49.387Z,94.93
2018-02-03T04:04:49.628Z,94.93
2018-02-03T04:05:49.622Z,95.69
2018-02-03T04:06:49.619Z,95.31
2018-02-03T04:07:49.600Z,95.79
2018-02-03T04:08:49.591Z,95.12
2018-02-03T04:09:49.340Z,95.31
2018-02-03T04:10:49.594Z,94.84
2018-02-03T04:11:49.565Z,94.18
2018-02-03T04:12:49.307Z,93.7
2018-02-03T04:13:49.554Z,93.13
2018-02-03T04:14:49.301Z,93.8
2018-02-03T04:15:49.281Z,93.32
2018-02-03T04:16:49.268Z,93.04
2018-02-03T04:17:49.508Z,93.13
2018-02-03T04:18:49.251Z,92.47
2018-02-03T04:19:49.243Z,92.47
2018-02-03T04:20:49.498Z,92.94
2018-02-03T04:21:49.475Z,92.47
2018-02-03T04:22:49.478Z,93.32
2018-02-03T04:23:49.472Z,93.04
2018-02-03T04:24:49.446Z,92.85
2018-02-03T04:25:49.446Z,93.04
2018-02-03T04:26:49.439Z,93.51
2018-02-03T04:27:49.419Z,93.13
2018-02-03T04:28:49.414Z,93.32
2018-02-03T04:29:49.407Z,93.13
2018-02-03T04:30:52.855Z,92.85
2018-02-03T04:31:49.135Z,92.94
2018-02-03T04:32:49.123Z,93.42
2018-02-03T04:33:49.115Z,93.32
2018-02-03T04:34:49.117Z,93.23
2018-02-03T04:35:49.349Z,93.13
2018-02-03T04:36:49.339Z,93.13
2018-02-03T04:37:49.078Z,93.42
2018-02-03T04:38:49.328Z,93.42
2018-02-03T04:39:49.313Z,93.23
2018-02-03T04:40:49.054Z,93.51
2018-02-03T04:41:49.045Z,93.51
2018-02-03T04:42:49.288Z,93.23
2018-02-03T04:43:49.279Z,92.94
2018-02-03T04:44:49.020Z,93.04
2018-02-03T04:45:49.264Z,92.94
2018-02-03T04:46:49.252Z,93.04
2018-02-03T04:47:49.243Z,93.51
2018-02-03T04:48:49.232Z,93.99
2018-02-03T04:49:48.972Z,93.7
2018-02-03T04:50:49.215Z,93.89
2018-02-03T04:51:49.209Z,93.7
2018-02-03T04:52:49.198Z,94.42
2018-02-03T04:53:49.192Z,94.42
2018-02-03T04:54:49.205Z,94.79
2018-02-03T04:55:48.916Z,94.51
2018-02-03T04:56:48.914Z,94.7
2018-02-03T04:57:48.907Z,94.98
2018-02-03T04:58:49.146Z,95.6
2018-02-03T04:59:48.880Z,95.12
2018-02-03T05:00:49.131Z,94.37
2018-02-03T05:01:49.115Z,94.74
2018-02-03T05:02:48.856Z,94.56
2018-02-03T05:03:48.845Z,94.74
2018-02-03T05:04:48.834Z,94.37
2018-02-03T05:05:48.834Z,94.74
2018-02-03T05:06:48.831Z,94.74
2018-02-03T05:07:49.063Z,94.65
2018-02-03T05:08:49.050Z,94.74
2018-02-03T05:09:49.043Z,94.74
2018-02-03T05:10:49.067Z,94.74
2018-02-03T05:11:49.027Z,94.84
2018-02-03T05:12:48.776Z,94.37
2018-02-03T05:13:49.008Z,94.37
2018-02-03T05:14:49.017Z,94.37
2018-02-03T05:15:48.736Z,94.46
2018-02-03T05:16:49.780Z,94.74
2018-02-03T05:17:48.967Z,94.74
2018-02-03T05:18:48.960Z,94.46
2018-02-03T05:19:48.951Z,95.88
2018-02-03T05:20:48.739Z,96.07
2018-02-03T05:21:48.936Z,96.26
2018-02-03T05:22:48.925Z,96.07
2018-02-03T05:23:48.665Z,96.45
2018-02-03T05:24:48.907Z,96.36
2018-02-03T05:25:48.907Z,96.83
2018-02-03T05:26:48.890Z,97.21
2018-02-03T05:27:48.630Z,97.21
2018-02-03T05:28:48.873Z,97.11
2018-02-03T05:29:48.610Z,96.83
2018-02-03T05:30:48.853Z,96.83
2018-02-03T05:31:49.153Z,97.3
2018-02-03T05:32:48.580Z,97.49
2018-02-03T05:33:48.574Z,97.4
2018-02-03T05:34:48.571Z,98.06
2018-02-03T05:35:48.556Z,98.16
2018-02-03T05:36:48.800Z,98.44
2018-02-03T05:37:48.795Z,98.16
2018-02-03T05:38:48.529Z,98.16
2018-02-03T05:39:48.774Z,98.16
2018-02-03T05:40:48.515Z,98.06
2018-02-03T05:41:48.754Z,97.68
2018-02-03T05:42:48.746Z,97.59
2018-02-03T05:43:48.485Z,97.68
2018-02-03T05:44:48.735Z,98.25
2018-02-03T05:45:48.721Z,98.25
2018-02-03T05:46:48.458Z,98.16
2018-02-03T05:47:48.702Z,98.44
2018-02-03T05:48:48.691Z,98.44
2018-02-03T05:49:48.687Z,98.72
2018-02-03T05:50:48.680Z,99.01
2018-02-03T05:51:48.417Z,98.35
2018-02-03T05:52:48.411Z,97.87
2018-02-03T05:53:48.651Z,98.54
2018-02-03T05:54:48.640Z,98.54
2018-02-03T05:55:48.633Z,98.06
2018-02-03T05:56:48.623Z,99.2
2018-02-03T05:57:48.613Z,99.29
2018-02-03T05:58:48.623Z,98.72
2018-02-03T05:59:48.605Z,98.91
2018-02-03T06:00:48.595Z,99.1
2018-02-03T06:01:49.138Z,99.2
2018-02-03T06:02:48.326Z,99.29
2018-02-03T06:03:48.302Z,99.77
2018-02-03T06:04:48.552Z,99.96
2018-02-03T06:05:48.551Z,99.77
2018-02-03T06:06:48.591Z,99.77
2018-02-03T06:07:48.288Z,99.29
2018-02-03T06:08:48.530Z,99.39
2018-02-03T06:09:48.259Z,99.58
2018-02-03T06:10:48.503Z,98.91
2018-02-03T06:11:48.249Z,98.72
2018-02-03T06:12:48.497Z,99.1
2018-02-03T06:13:48.229Z,98.82
2018-02-03T06:23:31.795Z,96.45
2018-02-03T06:24:32.033Z,96.45
2018-02-03T06:25:32.025Z,96.36
2018-02-03T06:26:32.007Z,96.36
2018-02-03T06:27:32.008Z,95.98
2018-02-03T06:28:31.993Z,95.41
2018-02-03T06:29:31.979Z,95.79
2018-02-03T06:30:31.964Z,95.88
2018-02-03T06:31:31.706Z,95.88
2018-02-03T06:32:31.944Z,95.5
2018-02-03T06:33:31.928Z,95.88
2018-02-03T06:34:31.924Z,95.6
2018-02-03T06:35:32.006Z,95.69
2018-02-03T06:36:31.654Z,95.5
2018-02-03T06:37:31.893Z,95.69
2018-02-03T06:38:35.141Z,95.31
2018-02-03T06:39:31.870Z,94.74
2018-02-03T06:40:31.862Z,94.46
2018-02-03T06:41:31.861Z,94.18
2018-02-03T06:42:31.845Z,94.32
2018-02-03T06:43:31.831Z,93.94
2018-02-03T06:44:31.576Z,94.89
2018-02-03T06:45:31.560Z,94.93
2018-02-03T06:46:31.804Z,94.51
2018-02-03T06:47:31.793Z,94.89
2018-02-03T06:48:31.542Z,95.45
2018-02-03T06:49:31.772Z,95.55
2018-02-03T06:50:31.767Z,95.5
2018-02-03T06:51:31.755Z,95.6
2018-02-03T06:52:31.492Z,95.64
2018-02-03T06:53:31.744Z,95.79
2018-02-03T06:54:31.726Z,95.79
2018-02-03T06:55:31.725Z,95.6
2018-02-03T06:56:31.459Z,96.12
2018-02-03T06:57:31.697Z,96.31
2018-02-03T06:58:31.439Z,96.26
2018-02-03T06:59:31.432Z,96.73
2018-02-03T07:00:31.672Z,96.73
2018-02-03T07:01:31.660Z,95.98
2018-02-03T07:02:31.663Z,96.36
2018-02-03T07:03:31.638Z,96.55
2018-02-03T07:04:31.633Z,95.79
2018-02-03T07:05:31.631Z,96.17
2018-02-03T07:06:31.757Z,95.98
2018-02-03T07:07:31.355Z,95.98
2018-02-03T07:08:31.595Z,95.69
2018-02-03T07:09:31.633Z,95.88
2018-02-03T07:10:31.586Z,96.17
2018-02-03T07:11:31.589Z,95.98
2018-02-03T07:12:31.567Z,96.45
2018-02-03T07:13:31.546Z,96.26
2018-02-03T07:14:31.550Z,96.07
2018-02-03T07:15:31.279Z,96.36
2018-02-03T07:16:31.518Z,97.11
2018-02-03T07:17:31.510Z,96.73
2018-02-03T07:18:31.537Z,97.11
2018-02-03T07:19:31.496Z,96.55
2018-02-03T07:20:31.482Z,96.17
2018-02-03T07:21:31.471Z,96.5
2018-02-03T07:22:31.211Z,96.64
2018-02-03T07:23:31.457Z,96.26
2018-02-03T07:24:33.855Z,96.26
2018-02-03T07:25:31.184Z,96.45
2018-02-03T07:26:31.172Z,96.17
2018-02-03T07:27:31.416Z,96.45
2018-02-03T07:28:31.417Z,95.98
2018-02-03T07:29:32.224Z,95.98
2018-02-03T07:30:31.474Z,96.07
2018-02-03T07:31:31.384Z,96.07
2018-02-03T07:32:31.122Z,96.07
2018-02-03T07:33:31.364Z,96.07
2018-02-03T07:34:31.361Z,96.45
2018-02-03T07:35:31.358Z,95.98
2018-02-03T07:36:31.351Z,95.5
2018-02-03T07:37:31.341Z,95.5
2018-02-03T07:38:31.322Z,95.6
2018-02-03T07:39:31.408Z,95.31
2018-02-03T07:40:31.047Z,94.65
2018-02-03T07:41:31.301Z,94.93
2018-02-03T07:42:31.300Z,94.65
2018-02-03T07:43:31.288Z,94.74
2018-02-03T07:44:31.291Z,94.84
2018-02-03T07:45:31.258Z,94.84
2018-02-03T07:46:31.247Z,94.37
2018-02-03T07:47:31.239Z,94.65
2018-02-03T07:48:31.234Z,94.18
2018-02-03T07:49:30.978Z,94.37
2018-02-03T07:50:31.216Z,93.89
2018-02-03T07:51:30.953Z,94.18
2018-02-03T07:52:31.201Z,94.08
2018-02-03T07:53:30.934Z,93.51
2018-02-03T07:54:31.181Z,93.13
2018-02-03T07:55:31.181Z,93.32
2018-02-03T07:56:31.160Z,93.51
2018-02-03T07:57:31.153Z,92.76
2018-02-03T07:58:30.894Z,92.38
2018-02-03T07:59:31.138Z,92.85
2018-02-03T08:00:30.875Z,91.9
2018-02-03T08:01:31.120Z,92.09
2018-02-03T08:02:31.115Z,91.43
2018-02-03T08:03:30.859Z,91.95
2018-02-03T08:04:31.098Z,91.14
2018-02-03T08:05:31.092Z,91.38
2018-02-03T08:06:30.825Z,90.86
2018-02-03T08:07:31.083Z,90.53
2018-02-03T08:08:31.067Z,90.81
2018-02-03T08:09:30.800Z,90.67
2018-02-03T08:10:31.046Z,90.72
2018-02-03T08:11:31.044Z,90.95
2018-02-03T08:12:31.032Z,90.95
2018-02-03T08:13:31.032Z,90.95
2018-02-03T08:14:31.016Z,90.81
2018-02-03T08:15:31.002Z,90.81
2018-02-03T08:16:31.000Z,91
2018-02-03T08:17:30.994Z,91
2018-02-03T08:18:30.994Z,91
2018-02-03T08:19:30.969Z,90.81
2018-02-03T08:20:30.962Z,91.28
2018-02-03T08:21:30.962Z,91
2018-02-03T08:22:30.964Z,91.19
2018-02-03T08:23:30.691Z,90.81
2018-02-03T08:24:30.677Z,90.72
2018-02-03T08:25:30.921Z,91
2018-02-03T08:26:30.915Z,91
2018-02-03T08:27:30.903Z,90.81
2018-02-03T08:28:30.896Z,91
2018-02-03T08:29:30.637Z,90.05
2018-02-03T08:30:30.907Z,90.43
2018-02-03T08:31:30.890Z,89.96
2018-02-03T08:32:30.864Z,89.77
2018-02-03T08:33:30.858Z,89.29
2018-02-03T08:34:30.848Z,89.48
2018-02-03T08:35:30.589Z,88.92
2018-02-03T08:36:30.833Z,88.73
2018-02-03T08:37:30.940Z,88.44
2018-02-03T08:38:30.570Z,88.25
2018-02-03T08:39:30.808Z,87.59
2018-02-03T08:40:32.603Z,87.4
2018-02-03T08:41:30.796Z,87.02
2018-02-03T08:42:30.534Z,86.55
2018-02-03T08:43:30.532Z,86.07
2018-02-03T08:44:30.517Z,85.97
2018-02-03T08:45:30.516Z,86.07
2018-02-03T08:46:30.503Z,85.83
2018-02-03T08:47:30.752Z,85.5
2018-02-03T08:48:30.488Z,85.64
2018-02-03T08:49:30.734Z,85.74
2018-02-03T08:50:30.481Z,85.07
2018-02-03T08:51:30.724Z,84.88
2018-02-03T08:52:30.456Z,85.36
2018-02-03T08:53:30.452Z,84.78
2018-02-03T08:54:30.698Z,84.88
2018-02-03T08:55:30.694Z,84.31
2018-02-03T08:56:30.688Z,84.22
2018-02-03T08:57:30.472Z,83.55
2018-02-03T08:58:30.669Z,83.46
2018-02-03T08:59:30.403Z,83.36
2018-02-03T09:00:30.686Z,83.55
2018-02-03T09:01:30.646Z,83.55
2018-02-03T09:02:30.652Z,83.27
2018-02-03T09:03:30.385Z,83.74
2018-02-03T09:04:30.633Z,83.65
2018-02-03T09:05:30.359Z,83.46
2018-02-03T09:06:30.603Z,83.08
2018-02-03T09:07:30.595Z,82.98
2018-02-03T09:08:30.602Z,83.61
2018-02-03T09:09:30.337Z,83.8
2018-02-03T09:10:30.573Z,83.04
2018-02-03T09:11:30.568Z,82.66
2018-02-03T09:12:30.604Z,83.32
2018-02-03T09:13:30.550Z,83.51
2018-02-03T09:14:30.554Z,83.98
2018-02-03T09:15:30.286Z,83.13
2018-02-03T09:16:30.529Z,83.61
2018-02-03T09:17:30.276Z,83.13
2018-02-03T09:18:30.511Z,83.8
2018-02-03T09:19:30.507Z,83.61
2018-02-03T09:20:30.504Z,83.8
2018-02-03T09:21:30.489Z,84.27
2018-02-03T09:22:30.230Z,83.61
2018-02-03T09:23:30.471Z,83.55
2018-02-03T09:24:30.475Z,82.79
2018-02-03T09:25:30.525Z,83.08
2018-02-03T09:26:31.804Z,83.04
2018-02-03T09:27:30.466Z,82.66
2018-02-03T09:28:30.465Z,82.66
2018-02-03T09:29:30.430Z,83.13
2018-02-03T09:30:30.422Z,83.42
2018-02-03T09:31:30.417Z,83.51
2018-02-03T09:32:30.411Z,83.7
2018-02-03T09:33:30.400Z,82.85
2018-02-03T09:34:30.393Z,83.17
2018-02-03T09:35:30.137Z,82.13
2018-02-03T09:36:30.126Z,82.6
2018-02-03T09:37:30.370Z,82.42
2018-02-03T09:38:30.115Z,82.7
2018-02-03T09:39:30.363Z,82.7
2018-02-03T09:40:30.098Z,83.42
2018-02-03T09:41:30.391Z,82.79
2018-02-03T09:42:30.085Z,82.42
2018-02-03T09:43:30.325Z,82.42
2018-02-03T09:44:30.319Z,82.32
2018-02-03T09:45:30.312Z,82.13
2018-02-03T09:46:30.304Z,81.94
2018-02-03T09:47:30.298Z,81.66
2018-02-03T09:48:30.297Z,81.94
2018-02-03T09:49:30.296Z,81.66
2018-02-03T09:50:30.278Z,81.85
2018-02-03T09:51:30.017Z,80.8
2018-02-03T09:52:30.018Z,80.99
2018-02-03T09:53:30.263Z,81.18
2018-02-03T09:54:30.245Z,80.8
2018-02-03T09:55:30.239Z,81.27
2018-02-03T09:56:31.665Z,81.56
2018-02-03T09:57:30.227Z,80.8
2018-02-03T09:58:30.226Z,80.99
2018-02-03T09:59:29.961Z,81.47
2018-02-03T10:00:30.258Z,81.27
2018-02-03T10:01:30.203Z,81.27
2018-02-03T10:02:30.209Z,81.09
2018-02-03T10:03:29.934Z,81.37
2018-02-03T10:04:29.931Z,81.56
2018-02-03T10:05:29.917Z,81.37
2018-02-03T10:06:29.915Z,81.75
2018-02-03T10:07:29.910Z,81.47
2018-02-03T10:08:30.156Z,81.75
2018-02-03T10:09:30.149Z,81.66
2018-02-03T10:10:30.133Z,82.04
2018-02-03T10:11:30.128Z,82.79
2018-02-03T10:12:30.120Z,83.08
2018-02-03T10:13:29.871Z,83.27
2018-02-03T10:14:30.105Z,82.6
2018-02-03T10:15:30.099Z,82.23
2018-02-03T10:16:30.100Z,81.94
2018-02-03T10:17:30.088Z,81.94
2018-02-03T10:18:29.826Z,81.18
2018-02-03T10:19:30.075Z,80.56
2018-02-03T10:20:30.067Z,79.71
2018-02-03T10:21:30.057Z,78.75
2018-02-03T10:22:29.801Z,79.14
2018-02-03T10:23:29.799Z,79.14
2018-02-03T10:53:23.340Z,80.71
2018-02-03T10:54:21.317Z,81.18
2018-02-03T10:55:21.304Z,81.27
2018-02-03T10:56:21.548Z,80.99
2018-02-03T10:57:21.282Z,80.99
2018-02-03T10:58:21.269Z,80.24
2018-02-03T10:59:21.271Z,80.04
2018-02-03T11:00:21.522Z,79.76
2018-02-03T11:01:21.236Z,79.47
2018-02-03T11:02:21.508Z,80.14
2018-02-03T11:03:21.485Z,80.14
2018-02-03T11:04:21.210Z,80.43
2018-02-03T11:05:21.219Z,80.62
2018-02-03T11:06:21.209Z,80.71
2018-02-03T11:07:21.447Z,80.8
2018-02-03T11:08:21.441Z,80.46
2018-02-03T11:09:21.177Z,79.33
2018-02-03T11:10:21.168Z,79.23
2018-02-03T11:11:21.167Z,79.14
2018-02-03T11:12:21.411Z,78.56
2018-02-03T11:13:21.417Z,78.95
2018-02-03T11:14:21.144Z,78.56
2018-02-03T11:15:21.377Z,78.56
2018-02-03T11:16:21.376Z,78.56
2018-02-03T11:17:21.112Z,78.95
2018-02-03T11:18:21.110Z,77.24
2018-02-03T11:19:21.353Z,76.95
2018-02-03T11:20:21.097Z,76.29
2018-02-03T11:21:21.087Z,76.48
2018-02-03T11:22:21.329Z,76.95
2018-02-03T11:23:21.070Z,76.95
2018-02-03T11:24:21.312Z,76.95
2018-02-03T11:25:21.058Z,76.76
2018-02-03T11:26:21.052Z,76.76
2018-02-03T11:27:21.301Z,76.57
2018-02-03T11:28:21.051Z,76.95
2018-02-03T11:29:21.281Z,77.33
2018-02-03T11:30:21.274Z,77.24
2018-02-03T11:31:21.273Z,77.14
2018-02-03T11:32:21.263Z,76.86
2018-02-03T11:33:21.006Z,76.29
2018-02-03T11:34:20.997Z,75.81
2018-02-03T11:35:20.987Z,75.81
2018-02-03T11:36:21.233Z,75.95
2018-02-03T11:37:21.226Z,75.15
2018-02-03T11:38:20.972Z,75.53
2018-02-03T11:39:21.216Z,75.15
2018-02-03T11:40:20.957Z,75.24
2018-02-03T11:41:21.202Z,75.43
2018-02-03T11:42:21.195Z,75.91
2018-02-03T11:43:20.937Z,75.62
2018-02-03T11:44:21.183Z,76.39
2018-02-03T11:45:20.929Z,76.57
2018-02-03T11:46:20.917Z,76.67
2018-02-03T11:47:21.164Z,76.39
2018-02-03T11:48:20.906Z,75.53
2018-02-03T11:49:20.900Z,76.01
2018-02-03T11:50:21.159Z,75.53
2018-02-03T11:51:20.888Z,75.24
2018-02-03T11:52:20.879Z,75.15
2018-02-03T11:53:23.332Z,74.87
2018-02-03T11:54:21.118Z,75.34
2018-02-03T11:55:21.115Z,75.05
2018-02-03T11:56:21.103Z,75.24
2018-02-03T11:57:21.101Z,74.71
2018-02-03T11:58:21.094Z,74.43
2018-02-03T11:59:21.098Z,74.81
2018-02-03T12:00:21.156Z,74.81
2018-02-03T12:01:20.822Z,74.71
2018-02-03T12:02:20.816Z,74.71
2018-02-03T12:03:20.811Z,74.71
2018-02-03T12:04:20.803Z,74.71
2018-02-03T12:05:21.051Z,74.71
2018-02-03T12:06:21.042Z,74.05
2018-02-03T12:07:21.044Z,73.57
2018-02-03T12:08:21.041Z,74.24
2018-02-03T12:09:20.775Z,74.24
2018-02-03T12:10:21.019Z,74.33
2018-02-03T12:11:20.764Z,74.33
2018-02-03T12:12:21.007Z,74.43
2018-02-03T12:13:20.750Z,74.05
2018-02-03T12:14:20.740Z,74.15
2018-02-03T12:15:20.766Z,74.71
2018-02-03T12:16:20.983Z,75.09
2018-02-03T12:17:20.722Z,75.15
2018-02-03T12:18:20.722Z,75.15
2018-02-03T12:19:20.964Z,75.15
2018-02-03T12:20:20.960Z,75.34
2018-02-03T12:21:20.953Z,75.62
2018-02-03T12:22:20.697Z,75.72
2018-02-03T12:23:20.684Z,75.53
2018-02-03T12:24:20.938Z,75.15
2018-02-03T12:25:20.670Z,74.11
2018-02-03T12:26:20.915Z,73.92
2018-02-03T12:27:20.910Z,73.72
2018-02-03T12:28:20.912Z,74.01
2018-02-03T12:29:20.902Z,73.82
2018-02-03T12:30:20.893Z,74.3
2018-02-03T12:31:20.638Z,74.77
2018-02-03T12:32:20.878Z,74.3
2018-02-03T12:33:20.631Z,73.96
2018-02-03T12:34:20.867Z,73.57
2018-02-03T12:35:20.863Z,74.05
2018-02-03T12:36:20.854Z,74.96
2018-02-03T12:37:20.848Z,75.81
2018-02-03T12:38:20.840Z,76.57
2018-02-03T12:39:20.594Z,77.43
2018-02-03T12:40:20.635Z,77.62
2018-02-03T12:41:20.600Z,78.38
2018-02-03T12:42:20.818Z,78.75
2018-02-03T12:43:20.816Z,79.33
2018-02-03T12:44:20.549Z,79.33
2018-02-03T12:45:20.791Z,79.9
2018-02-03T12:46:20.537Z,79.8
2018-02-03T12:47:20.779Z,80.94
2018-02-03T12:48:20.783Z,81.23
2018-02-03T12:49:20.766Z,80.84
2018-02-03T12:50:20.766Z,80.84
2018-02-03T12:51:20.750Z,80.75
2018-02-03T12:52:20.494Z,81.6
2018-02-03T12:53:20.734Z,80.65
2018-02-03T12:54:21.037Z,80.65
2018-02-03T12:55:20.724Z,80.75
2018-02-03T12:56:20.468Z,80.56
2018-02-03T12:57:20.708Z,80.46
2018-02-03T12:58:20.451Z,81.04
2018-02-03T12:59:20.695Z,80.65
2018-02-03T13:00:20.443Z,80.94
2018-02-03T13:01:20.687Z,80.65
2018-02-03T13:02:20.674Z,81.32
2018-02-03T13:03:20.668Z,81.23
2018-02-03T13:04:20.411Z,81.04
2018-02-03T13:05:20.405Z,80.18
2018-02-03T13:06:20.395Z,80.27
2018-02-03T13:07:20.650Z,80.37
2018-02-03T13:08:20.629Z,80.37
2018-02-03T13:09:20.634Z,80.84
2018-02-03T13:10:20.374Z,80.94
2018-02-03T13:11:20.618Z,80.84
2018-02-03T13:12:20.352Z,80.94
2018-02-03T13:13:20.613Z,81.23
2018-02-03T13:14:20.614Z,79.8
2018-02-03T13:15:20.330Z,79.71
2018-02-03T13:16:20.577Z,79.42
2018-02-03T13:17:20.325Z,78.95
2018-02-03T13:18:20.562Z,78.75
2018-02-03T13:19:20.556Z,79.61
2018-02-03T13:20:20.558Z,79.71
2018-02-03T13:21:20.561Z,79.42
2018-02-03T13:22:20.529Z,80.08
2018-02-03T13:23:20.274Z,80.37
2018-02-03T13:24:20.515Z,79.99
2018-02-03T13:25:20.260Z,79.42
2018-02-03T13:26:20.501Z,79.99
2018-02-03T13:27:20.249Z,79.9
2018-02-03T13:28:20.487Z,79.33
2018-02-03T13:29:20.485Z,79.61
2018-02-03T13:30:20.221Z,79.61
2018-02-03T13:31:20.213Z,78.95
2018-02-03T13:32:20.466Z,79.23
2018-02-03T13:33:20.203Z,79.33